sensor_id;sensor_type;location;lat;lon;timestamp;P1;durP1;ratioP1;P2;durP2;ratioP2
47219;SDS011;32961;51.936;4.788;2023-04-01T00:02:17;41.55;;;11.93;;
47219;SDS011;32961;51.936;4.788;2023-04-01T00:04:45;35.90;;;11.57;;
47219;SDS011;32961;51.936;4.788;2023-04-01T00:07:13;44.58;;;12.93;;
47219;SDS011;32961;51.936;4.788;2023-04-01T00:09:41;44.38;;;13.18;;
47219;SDS011;32961;51.936;4.788;2023-04-01T00:12:09;51.97;;;13.63;;
47219;SDS011;32961;51.936;4.788;2023-04-01T00:14:37;52.58;;;12.15;;
47219;SDS011;32961;51.936;4.788;2023-04-01T00:17:07;46.47;;;12.43;;
47219;SDS011;32961;51.936;4.788;2023-04-01T00:19:35;47.42;;;14.32;;
47219;SDS011;32961;51.936;4.788;2023-04-01T00:22:03;37.00;;;9.60;;
47219;SDS011;32961;51.936;4.788;2023-04-01T00:24:31;33.90;;;8.93;;
47219;SDS011;32961;51.936;4.788;2023-04-01T00:26:59;35.90;;;8.95;;
47219;SDS011;32961;51.936;4.788;2023-04-01T00:29:27;36.05;;;8.52;;
47219;SDS011;32961;51.936;4.788;2023-04-01T00:31:56;32.53;;;8.50;;
47219;SDS011;32961;51.936;4.788;2023-04-01T00:34:26;35.35;;;9.00;;
47219;SDS011;32961;51.936;4.788;2023-04-01T00:36:54;38.95;;;9.30;;
47219;SDS011;32961;51.936;4.788;2023-04-01T00:39:22;27.35;;;8.32;;
47219;SDS011;32961;51.936;4.788;2023-04-01T00:41:49;32.15;;;7.22;;
47219;SDS011;32961;51.936;4.788;2023-04-01T00:44:19;30.15;;;8.48;;
47219;SDS011;32961;51.936;4.788;2023-04-01T00:46:48;32.85;;;10.07;;
47219;SDS011;32961;51.936;4.788;2023-04-01T00:49:17;33.92;;;10.32;;
47219;SDS011;32961;51.936;4.788;2023-04-01T00:51:50;40.35;;;10.30;;
47219;SDS011;32961;51.936;4.788;2023-04-01T00:54:20;29.50;;;8.73;;
47219;SDS011;32961;51.936;4.788;2023-04-01T00:56:50;40.75;;;8.30;;
47219;SDS011;32961;51.936;4.788;2023-04-01T00:59:23;44.88;;;8.43;;
47219;SDS011;32961;51.936;4.788;2023-04-01T01:01:52;41.10;;;10.00;;
47219;SDS011;32961;51.936;4.788;2023-04-01T01:04:24;40.92;;;10.63;;
47219;SDS011;32961;51.936;4.788;2023-04-01T01:06:57;39.35;;;10.13;;
47219;SDS011;32961;51.936;4.788;2023-04-01T01:09:38;50.83;;;10.45;;
47219;SDS011;32961;51.936;4.788;2023-04-01T01:12:11;42.05;;;10.88;;
47219;SDS011;32961;51.936;4.788;2023-04-01T01:14:52;43.25;;;10.30;;
47219;SDS011;32961;51.936;4.788;2023-04-01T01:17:31;41.17;;;9.43;;
47219;SDS011;32961;51.936;4.788;2023-04-01T01:20:14;45.38;;;10.40;;
47219;SDS011;32961;51.936;4.788;2023-04-01T01:23:19;40.97;;;10.40;;
47219;SDS011;32961;51.936;4.788;2023-04-01T01:26:06;32.95;;;9.35;;
47219;SDS011;32961;51.936;4.788;2023-04-01T01:28:44;29.40;;;7.80;;
47219;SDS011;32961;51.936;4.788;2023-04-01T01:31:22;24.70;;;6.55;;
47219;SDS011;32961;51.936;4.788;2023-04-01T01:34:01;21.23;;;6.78;;
47219;SDS011;32961;51.936;4.788;2023-04-01T01:36:39;20.08;;;7.47;;
47219;SDS011;32961;51.936;4.788;2023-04-01T01:39:11;28.48;;;8.95;;
47219;SDS011;32961;51.936;4.788;2023-04-01T01:41:41;31.75;;;9.90;;
47219;SDS011;32961;51.936;4.788;2023-04-01T01:44:14;29.83;;;9.00;;
47219;SDS011;32961;51.936;4.788;2023-04-01T01:46:43;25.08;;;8.75;;
47219;SDS011;32961;51.936;4.788;2023-04-01T01:49:12;27.60;;;9.30;;
47219;SDS011;32961;51.936;4.788;2023-04-01T01:51:43;24.42;;;8.05;;
47219;SDS011;32961;51.936;4.788;2023-04-01T01:54:11;18.27;;;6.57;;
47219;SDS011;32961;51.936;4.788;2023-04-01T01:56:40;23.30;;;7.45;;
47219;SDS011;32961;51.936;4.788;2023-04-01T01:59:10;18.08;;;5.78;;
47219;SDS011;32961;51.936;4.788;2023-04-01T02:01:41;20.48;;;6.10;;
47219;SDS011;32961;51.936;4.788;2023-04-01T02:04:12;14.63;;;4.85;;
47219;SDS011;32961;51.936;4.788;2023-04-01T02:06:44;16.20;;;4.00;;
47219;SDS011;32961;51.936;4.788;2023-04-01T02:09:18;16.00;;;4.35;;
47219;SDS011;32961;51.936;4.788;2023-04-01T02:11:47;14.65;;;4.63;;
47219;SDS011;32961;51.936;4.788;2023-04-01T02:14:19;18.35;;;4.75;;
47219;SDS011;32961;51.936;4.788;2023-04-01T02:16:49;21.58;;;6.07;;
47219;SDS011;32961;51.936;4.788;2023-04-01T02:19:21;21.13;;;5.22;;
47219;SDS011;32961;51.936;4.788;2023-04-01T02:21:56;16.83;;;5.22;;
47219;SDS011;32961;51.936;4.788;2023-04-01T02:24:27;16.55;;;6.07;;
47219;SDS011;32961;51.936;4.788;2023-04-01T02:26:57;17.88;;;4.65;;
47219;SDS011;32961;51.936;4.788;2023-04-01T02:29:25;19.48;;;6.88;;
47219;SDS011;32961;51.936;4.788;2023-04-01T02:31:53;16.80;;;5.82;;
47219;SDS011;32961;51.936;4.788;2023-04-01T02:34:22;14.40;;;5.80;;
47219;SDS011;32961;51.936;4.788;2023-04-01T02:36:51;13.90;;;5.35;;
47219;SDS011;32961;51.936;4.788;2023-04-01T02:39:22;12.98;;;5.63;;
47219;SDS011;32961;51.936;4.788;2023-04-01T02:41:52;12.05;;;5.97;;
47219;SDS011;32961;51.936;4.788;2023-04-01T02:44:20;13.60;;;6.25;;
47219;SDS011;32961;51.936;4.788;2023-04-01T02:46:48;13.88;;;6.75;;
47219;SDS011;32961;51.936;4.788;2023-04-01T02:49:15;17.08;;;6.72;;
47219;SDS011;32961;51.936;4.788;2023-04-01T02:51:43;15.75;;;7.22;;
47219;SDS011;32961;51.936;4.788;2023-04-01T02:54:13;18.75;;;7.78;;
47219;SDS011;32961;51.936;4.788;2023-04-01T02:56:42;20.02;;;7.07;;
47219;SDS011;32961;51.936;4.788;2023-04-01T02:59:10;13.73;;;6.93;;
47219;SDS011;32961;51.936;4.788;2023-04-01T03:01:40;20.85;;;8.38;;
47219;SDS011;32961;51.936;4.788;2023-04-01T03:04:08;16.05;;;7.00;;
47219;SDS011;32961;51.936;4.788;2023-04-01T03:06:36;17.45;;;6.80;;
47219;SDS011;32961;51.936;4.788;2023-04-01T03:09:03;19.08;;;7.03;;
47219;SDS011;32961;51.936;4.788;2023-04-01T03:11:31;19.98;;;6.47;;
47219;SDS011;32961;51.936;4.788;2023-04-01T03:14:01;16.02;;;7.53;;
47219;SDS011;32961;51.936;4.788;2023-04-01T03:16:28;19.05;;;8.18;;
47219;SDS011;32961;51.936;4.788;2023-04-01T03:18:56;18.10;;;7.93;;
47219;SDS011;32961;51.936;4.788;2023-04-01T03:21:26;25.08;;;9.30;;
47219;SDS011;32961;51.936;4.788;2023-04-01T03:23:53;26.45;;;9.60;;
47219;SDS011;32961;51.936;4.788;2023-04-01T03:26:21;27.58;;;10.05;;
47219;SDS011;32961;51.936;4.788;2023-04-01T03:28:49;23.52;;;11.15;;
47219;SDS011;32961;51.936;4.788;2023-04-01T03:31:18;24.80;;;11.52;;
47219;SDS011;32961;51.936;4.788;2023-04-01T03:33:49;27.98;;;12.52;;
47219;SDS011;32961;51.936;4.788;2023-04-01T03:36:19;23.70;;;12.05;;
47219;SDS011;32961;51.936;4.788;2023-04-01T03:38:47;21.50;;;12.63;;
47219;SDS011;32961;51.936;4.788;2023-04-01T03:41:15;34.22;;;13.75;;
47219;SDS011;32961;51.936;4.788;2023-04-01T03:43:44;30.25;;;14.20;;
47219;SDS011;32961;51.936;4.788;2023-04-01T03:46:18;26.75;;;13.75;;
47219;SDS011;32961;51.936;4.788;2023-04-01T03:48:46;34.97;;;15.10;;
47219;SDS011;32961;51.936;4.788;2023-04-01T03:51:14;29.60;;;14.50;;
47219;SDS011;32961;51.936;4.788;2023-04-01T03:53:42;33.13;;;15.55;;
47219;SDS011;32961;51.936;4.788;2023-04-01T03:56:10;31.15;;;13.75;;
47219;SDS011;32961;51.936;4.788;2023-04-01T03:58:38;39.90;;;14.27;;
47219;SDS011;32961;51.936;4.788;2023-04-01T04:01:13;33.88;;;13.90;;
47219;SDS011;32961;51.936;4.788;2023-04-01T04:03:43;32.22;;;13.15;;
47219;SDS011;32961;51.936;4.788;2023-04-01T04:06:12;34.90;;;13.05;;
47219;SDS011;32961;51.936;4.788;2023-04-01T04:08:41;29.27;;;13.40;;
47219;SDS011;32961;51.936;4.788;2023-04-01T04:11:09;32.80;;;12.25;;
47219;SDS011;32961;51.936;4.788;2023-04-01T04:13:36;26.10;;;12.00;;
47219;SDS011;32961;51.936;4.788;2023-04-01T04:16:04;20.75;;;10.30;;
47219;SDS011;32961;51.936;4.788;2023-04-01T04:18:33;26.50;;;9.98;;
47219;SDS011;32961;51.936;4.788;2023-04-01T04:21:02;27.17;;;11.35;;
47219;SDS011;32961;51.936;4.788;2023-04-01T04:23:31;23.83;;;10.98;;
47219;SDS011;32961;51.936;4.788;2023-04-01T04:26:00;28.85;;;12.38;;
47219;SDS011;32961;51.936;4.788;2023-04-01T04:28:30;29.15;;;11.75;;
47219;SDS011;32961;51.936;4.788;2023-04-01T04:30:58;26.00;;;11.63;;
47219;SDS011;32961;51.936;4.788;2023-04-01T04:33:26;29.20;;;12.02;;
47219;SDS011;32961;51.936;4.788;2023-04-01T04:35:55;29.23;;;12.35;;
47219;SDS011;32961;51.936;4.788;2023-04-01T04:38:25;26.70;;;12.05;;
47219;SDS011;32961;51.936;4.788;2023-04-01T04:40:54;33.17;;;12.65;;
47219;SDS011;32961;51.936;4.788;2023-04-01T04:43:22;42.33;;;14.90;;
47219;SDS011;32961;51.936;4.788;2023-04-01T04:45:50;29.10;;;13.25;;
47219;SDS011;32961;51.936;4.788;2023-04-01T04:48:18;24.70;;;12.63;;
47219;SDS011;32961;51.936;4.788;2023-04-01T04:50:46;29.42;;;12.82;;
47219;SDS011;32961;51.936;4.788;2023-04-01T04:53:15;23.38;;;13.02;;
47219;SDS011;32961;51.936;4.788;2023-04-01T04:55:45;26.10;;;13.43;;
47219;SDS011;32961;51.936;4.788;2023-04-01T04:58:14;31.17;;;13.20;;
47219;SDS011;32961;51.936;4.788;2023-04-01T05:00:42;34.28;;;14.38;;
47219;SDS011;32961;51.936;4.788;2023-04-01T05:03:10;33.25;;;13.90;;
47219;SDS011;32961;51.936;4.788;2023-04-01T05:05:39;35.95;;;13.13;;
47219;SDS011;32961;51.936;4.788;2023-04-01T05:08:07;32.72;;;15.43;;
47219;SDS011;32961;51.936;4.788;2023-04-01T05:10:35;34.03;;;12.75;;
47219;SDS011;32961;51.936;4.788;2023-04-01T05:13:04;26.73;;;13.20;;
47219;SDS011;32961;51.936;4.788;2023-04-01T05:15:31;30.23;;;14.60;;
47219;SDS011;32961;51.936;4.788;2023-04-01T05:18:00;34.08;;;15.18;;
47219;SDS011;32961;51.936;4.788;2023-04-01T05:20:28;33.65;;;15.80;;
47219;SDS011;32961;51.936;4.788;2023-04-01T05:22:56;28.90;;;16.15;;
47219;SDS011;32961;51.936;4.788;2023-04-01T05:25:24;39.28;;;17.73;;
47219;SDS011;32961;51.936;4.788;2023-04-01T05:27:53;41.50;;;19.58;;
47219;SDS011;32961;51.936;4.788;2023-04-01T05:30:22;35.80;;;15.73;;
47219;SDS011;32961;51.936;4.788;2023-04-01T05:32:50;33.67;;;16.45;;
47219;SDS011;32961;51.936;4.788;2023-04-01T05:35:17;37.95;;;16.52;;
47219;SDS011;32961;51.936;4.788;2023-04-01T05:37:45;32.90;;;15.38;;
47219;SDS011;32961;51.936;4.788;2023-04-01T05:40:13;32.88;;;13.55;;
47219;SDS011;32961;51.936;4.788;2023-04-01T05:42:41;31.10;;;14.20;;
47219;SDS011;32961;51.936;4.788;2023-04-01T05:45:09;33.05;;;14.13;;
47219;SDS011;32961;51.936;4.788;2023-04-01T05:47:39;30.05;;;14.52;;
47219;SDS011;32961;51.936;4.788;2023-04-01T05:50:07;37.88;;;16.13;;
47219;SDS011;32961;51.936;4.788;2023-04-01T05:52:35;30.73;;;15.02;;
47219;SDS011;32961;51.936;4.788;2023-04-01T05:55:03;37.85;;;16.17;;
47219;SDS011;32961;51.936;4.788;2023-04-01T05:57:31;33.88;;;14.75;;
47219;SDS011;32961;51.936;4.788;2023-04-01T05:59:59;33.47;;;15.38;;
47219;SDS011;32961;51.936;4.788;2023-04-01T06:02:27;33.42;;;15.38;;
47219;SDS011;32961;51.936;4.788;2023-04-01T06:05:00;38.42;;;14.75;;
47219;SDS011;32961;51.936;4.788;2023-04-01T06:07:30;28.77;;;13.82;;
47219;SDS011;32961;51.936;4.788;2023-04-01T06:09:58;29.75;;;14.27;;
47219;SDS011;32961;51.936;4.788;2023-04-01T06:12:34;28.02;;;13.38;;
47219;SDS011;32961;51.936;4.788;2023-04-01T06:15:18;29.58;;;14.23;;
47219;SDS011;32961;51.936;4.788;2023-04-01T06:18:03;32.22;;;14.57;;
47219;SDS011;32961;51.936;4.788;2023-04-01T06:21:07;38.20;;;15.63;;
47219;SDS011;32961;51.936;4.788;2023-04-01T06:26:27;30.55;;;13.25;;
47219;SDS011;32961;51.936;4.788;2023-04-01T06:29:14;30.42;;;12.93;;
47219;SDS011;32961;51.936;4.788;2023-04-01T06:32:07;31.40;;;14.27;;
47219;SDS011;32961;51.936;4.788;2023-04-01T06:34:55;31.35;;;14.02;;
47219;SDS011;32961;51.936;4.788;2023-04-01T06:40:42;37.45;;;15.20;;
47219;SDS011;32961;51.936;4.788;2023-04-01T06:43:21;40.65;;;16.17;;
47219;SDS011;32961;51.936;4.788;2023-04-01T06:45:55;41.30;;;18.65;;
47219;SDS011;32961;51.936;4.788;2023-04-01T06:48:38;46.45;;;19.55;;
47219;SDS011;32961;51.936;4.788;2023-04-01T06:51:16;44.20;;;18.20;;
47219;SDS011;32961;51.936;4.788;2023-04-01T06:53:54;39.20;;;18.55;;
47219;SDS011;32961;51.936;4.788;2023-04-01T06:56:27;48.38;;;18.65;;
47219;SDS011;32961;51.936;4.788;2023-04-01T06:58:57;34.72;;;17.50;;
47219;SDS011;32961;51.936;4.788;2023-04-01T07:01:28;40.85;;;19.08;;
47219;SDS011;32961;51.936;4.788;2023-04-01T07:04:00;34.67;;;17.85;;
47219;SDS011;32961;51.936;4.788;2023-04-01T07:09:06;41.38;;;16.40;;
47219;SDS011;32961;51.936;4.788;2023-04-01T07:11:39;34.92;;;15.30;;
47219;SDS011;32961;51.936;4.788;2023-04-01T07:14:10;29.88;;;15.48;;
47219;SDS011;32961;51.936;4.788;2023-04-01T07:16:46;38.47;;;18.38;;
47219;SDS011;32961;51.936;4.788;2023-04-01T07:19:20;38.80;;;18.08;;
47219;SDS011;32961;51.936;4.788;2023-04-01T07:21:54;39.42;;;18.15;;
47219;SDS011;32961;51.936;4.788;2023-04-01T07:24:27;35.17;;;16.52;;
47219;SDS011;32961;51.936;4.788;2023-04-01T07:27:00;34.60;;;17.15;;
47219;SDS011;32961;51.936;4.788;2023-04-01T07:29:28;33.72;;;16.00;;
47219;SDS011;32961;51.936;4.788;2023-04-01T07:32:00;45.40;;;17.35;;
47219;SDS011;32961;51.936;4.788;2023-04-01T07:34:51;38.38;;;17.02;;
47219;SDS011;32961;51.936;4.788;2023-04-01T07:37:26;35.20;;;16.25;;
47219;SDS011;32961;51.936;4.788;2023-04-01T07:40:01;37.35;;;16.02;;
47219;SDS011;32961;51.936;4.788;2023-04-01T07:42:43;36.88;;;16.42;;
47219;SDS011;32961;51.936;4.788;2023-04-01T07:45:22;34.40;;;15.82;;
47219;SDS011;32961;51.936;4.788;2023-04-01T07:50:44;34.03;;;15.70;;
47219;SDS011;32961;51.936;4.788;2023-04-01T07:53:21;29.50;;;14.10;;
47219;SDS011;32961;51.936;4.788;2023-04-01T07:55:56;30.73;;;14.55;;
47219;SDS011;32961;51.936;4.788;2023-04-01T07:58:33;28.75;;;13.95;;
47219;SDS011;32961;51.936;4.788;2023-04-01T08:01:10;29.25;;;15.63;;
47219;SDS011;32961;51.936;4.788;2023-04-01T08:03:48;29.23;;;14.05;;
47219;SDS011;32961;51.936;4.788;2023-04-01T08:08:59;31.88;;;14.07;;
47219;SDS011;32961;51.936;4.788;2023-04-01T08:11:41;28.77;;;12.00;;
47219;SDS011;32961;51.936;4.788;2023-04-01T08:14:26;25.33;;;10.95;;
47219;SDS011;32961;51.936;4.788;2023-04-01T08:17:03;22.20;;;11.00;;
47219;SDS011;32961;51.936;4.788;2023-04-01T08:19:42;30.60;;;13.60;;
47219;SDS011;32961;51.936;4.788;2023-04-01T08:22:19;24.98;;;12.85;;
47219;SDS011;32961;51.936;4.788;2023-04-01T08:24:54;26.27;;;12.80;;
47219;SDS011;32961;51.936;4.788;2023-04-01T08:27:28;26.25;;;12.73;;
47219;SDS011;32961;51.936;4.788;2023-04-01T08:30:02;28.50;;;12.88;;
47219;SDS011;32961;51.936;4.788;2023-04-01T08:32:36;24.20;;;12.40;;
47219;SDS011;32961;51.936;4.788;2023-04-01T08:35:07;23.48;;;12.05;;
47219;SDS011;32961;51.936;4.788;2023-04-01T08:37:42;32.13;;;13.90;;
47219;SDS011;32961;51.936;4.788;2023-04-01T08:40:27;26.48;;;13.57;;
47219;SDS011;32961;51.936;4.788;2023-04-01T08:43:15;28.65;;;12.30;;
47219;SDS011;32961;51.936;4.788;2023-04-01T08:45:56;29.90;;;11.98;;
47219;SDS011;32961;51.936;4.788;2023-04-01T08:48:43;27.63;;;12.10;;
47219;SDS011;32961;51.936;4.788;2023-04-01T08:54:41;25.13;;;11.68;;
47219;SDS011;32961;51.936;4.788;2023-04-01T08:57:21;23.52;;;11.32;;
47219;SDS011;32961;51.936;4.788;2023-04-01T09:00:08;21.90;;;10.93;;
47219;SDS011;32961;51.936;4.788;2023-04-01T09:02:58;21.63;;;10.90;;
47219;SDS011;32961;51.936;4.788;2023-04-01T09:05:58;20.58;;;10.27;;
47219;SDS011;32961;51.936;4.788;2023-04-01T09:09:03;21.60;;;10.25;;
47219;SDS011;32961;51.936;4.788;2023-04-01T09:12:01;19.35;;;10.10;;
47219;SDS011;32961;51.936;4.788;2023-04-01T09:14:56;19.38;;;9.90;;
47219;SDS011;32961;51.936;4.788;2023-04-01T09:17:44;24.02;;;9.93;;
47219;SDS011;32961;51.936;4.788;2023-04-01T09:23:22;43.47;;;11.43;;
47219;SDS011;32961;51.936;4.788;2023-04-01T09:26:08;30.38;;;10.00;;
47219;SDS011;32961;51.936;4.788;2023-04-01T09:28:49;21.60;;;10.70;;
47219;SDS011;32961;51.936;4.788;2023-04-01T09:31:35;21.48;;;10.25;;
47219;SDS011;32961;51.936;4.788;2023-04-01T09:34:23;20.95;;;10.25;;
47219;SDS011;32961;51.936;4.788;2023-04-01T09:37:01;25.00;;;10.30;;
47219;SDS011;32961;51.936;4.788;2023-04-01T09:39:47;22.42;;;9.90;;
47219;SDS011;32961;51.936;4.788;2023-04-01T09:42:34;20.33;;;9.88;;
47219;SDS011;32961;51.936;4.788;2023-04-01T09:45:15;19.23;;;8.83;;
47219;SDS011;32961;51.936;4.788;2023-04-01T09:47:55;20.45;;;9.60;;
47219;SDS011;32961;51.936;4.788;2023-04-01T09:50:33;28.10;;;12.23;;
47219;SDS011;32961;51.936;4.788;2023-04-01T09:53:13;29.75;;;12.10;;
47219;SDS011;32961;51.936;4.788;2023-04-01T09:58:57;33.47;;;13.45;;
47219;SDS011;32961;51.936;4.788;2023-04-01T10:01:43;33.33;;;12.82;;
47219;SDS011;32961;51.936;4.788;2023-04-01T10:10:48;21.45;;;8.88;;
47219;SDS011;32961;51.936;4.788;2023-04-01T10:13:39;14.27;;;6.28;;
47219;SDS011;32961;51.936;4.788;2023-04-01T10:16:41;13.27;;;6.50;;
47219;SDS011;32961;51.936;4.788;2023-04-01T10:19:49;16.15;;;6.25;;
47219;SDS011;32961;51.936;4.788;2023-04-01T10:25:36;11.38;;;5.53;;
47219;SDS011;32961;51.936;4.788;2023-04-01T10:28:35;10.13;;;5.88;;
47219;SDS011;32961;51.936;4.788;2023-04-01T10:37:23;11.32;;;6.13;;
47219;SDS011;32961;51.936;4.788;2023-04-01T10:40:31;15.85;;;7.22;;
47219;SDS011;32961;51.936;4.788;2023-04-01T10:43:23;14.73;;;6.95;;
47219;SDS011;32961;51.936;4.788;2023-04-01T10:55:35;22.15;;;9.75;;
47219;SDS011;32961;51.936;4.788;2023-04-01T10:58:20;26.50;;;10.63;;
47219;SDS011;32961;51.936;4.788;2023-04-01T11:01:27;26.60;;;11.18;;
47219;SDS011;32961;51.936;4.788;2023-04-01T11:10:57;17.30;;;8.25;;
47219;SDS011;32961;51.936;4.788;2023-04-01T11:13:55;18.27;;;7.97;;
47219;SDS011;32961;51.936;4.788;2023-04-01T11:17:01;33.10;;;10.15;;
47219;SDS011;32961;51.936;4.788;2023-04-01T11:19:56;22.55;;;8.93;;
47219;SDS011;32961;51.936;4.788;2023-04-01T11:22:55;16.35;;;8.18;;
47219;SDS011;32961;51.936;4.788;2023-04-01T11:25:39;18.75;;;7.95;;
47219;SDS011;32961;51.936;4.788;2023-04-01T11:28:27;20.63;;;8.90;;
47219;SDS011;32961;51.936;4.788;2023-04-01T11:31:36;20.17;;;9.55;;
47219;SDS011;32961;51.936;4.788;2023-04-01T11:34:24;21.30;;;9.43;;
47219;SDS011;32961;51.936;4.788;2023-04-01T11:37:06;15.90;;;7.13;;
47219;SDS011;32961;51.936;4.788;2023-04-01T11:39:44;18.40;;;7.10;;
47219;SDS011;32961;51.936;4.788;2023-04-01T11:42:30;13.93;;;6.55;;
47219;SDS011;32961;51.936;4.788;2023-04-01T11:45:11;11.70;;;5.95;;
47219;SDS011;32961;51.936;4.788;2023-04-01T11:48:07;10.93;;;5.78;;
47219;SDS011;32961;51.936;4.788;2023-04-01T11:51:03;18.58;;;7.95;;
47219;SDS011;32961;51.936;4.788;2023-04-01T11:53:44;17.92;;;7.68;;
47219;SDS011;32961;51.936;4.788;2023-04-01T11:56:27;19.00;;;8.15;;
47219;SDS011;32961;51.936;4.788;2023-04-01T11:59:11;19.10;;;8.85;;
47219;SDS011;32961;51.936;4.788;2023-04-01T12:01:58;16.92;;;8.80;;
47219;SDS011;32961;51.936;4.788;2023-04-01T12:07:22;14.05;;;7.40;;
47219;SDS011;32961;51.936;4.788;2023-04-01T12:10:05;11.77;;;6.43;;
47219;SDS011;32961;51.936;4.788;2023-04-01T12:12:46;13.63;;;7.32;;
47219;SDS011;32961;51.936;4.788;2023-04-01T12:15:29;17.92;;;8.18;;
47219;SDS011;32961;51.936;4.788;2023-04-01T12:18:05;15.18;;;7.68;;
47219;SDS011;32961;51.936;4.788;2023-04-01T12:20:45;15.40;;;8.15;;
47219;SDS011;32961;51.936;4.788;2023-04-01T12:23:23;17.98;;;7.80;;
47219;SDS011;32961;51.936;4.788;2023-04-01T12:29:03;13.88;;;7.15;;
47219;SDS011;32961;51.936;4.788;2023-04-01T12:31:42;12.50;;;6.53;;
47219;SDS011;32961;51.936;4.788;2023-04-01T12:34:36;13.27;;;6.80;;
47219;SDS011;32961;51.936;4.788;2023-04-01T12:37:18;15.95;;;7.30;;
47219;SDS011;32961;51.936;4.788;2023-04-01T12:40:05;14.38;;;7.38;;
47219;SDS011;32961;51.936;4.788;2023-04-01T12:45:30;14.68;;;7.28;;
47219;SDS011;32961;51.936;4.788;2023-04-01T12:48:03;12.80;;;7.38;;
47219;SDS011;32961;51.936;4.788;2023-04-01T12:57:10;16.48;;;8.40;;
47219;SDS011;32961;51.936;4.788;2023-04-01T12:59:58;17.33;;;9.30;;
47219;SDS011;32961;51.936;4.788;2023-04-01T13:02:42;19.08;;;9.00;;
47219;SDS011;32961;51.936;4.788;2023-04-01T13:08:17;18.02;;;9.20;;
47219;SDS011;32961;51.936;4.788;2023-04-01T13:11:02;13.23;;;6.90;;
47219;SDS011;32961;51.936;4.788;2023-04-01T13:16:52;14.52;;;7.90;;
47219;SDS011;32961;51.936;4.788;2023-04-01T13:19:25;14.27;;;9.13;;
47219;SDS011;32961;51.936;4.788;2023-04-01T13:22:04;15.18;;;8.32;;
47219;SDS011;32961;51.936;4.788;2023-04-01T13:24:42;17.65;;;8.70;;
47219;SDS011;32961;51.936;4.788;2023-04-01T13:27:18;18.92;;;9.65;;
47219;SDS011;32961;51.936;4.788;2023-04-01T13:29:59;18.27;;;9.10;;
47219;SDS011;32961;51.936;4.788;2023-04-01T13:32:40;17.58;;;9.43;;
47219;SDS011;32961;51.936;4.788;2023-04-01T13:35:20;20.08;;;9.35;;
47219;SDS011;32961;51.936;4.788;2023-04-01T13:37:57;21.80;;;8.82;;
47219;SDS011;32961;51.936;4.788;2023-04-01T13:40:43;20.05;;;9.38;;
47219;SDS011;32961;51.936;4.788;2023-04-01T13:43:30;25.60;;;10.48;;
47219;SDS011;32961;51.936;4.788;2023-04-01T13:46:08;19.13;;;9.02;;
47219;SDS011;32961;51.936;4.788;2023-04-01T13:48:57;22.67;;;9.57;;
47219;SDS011;32961;51.936;4.788;2023-04-01T13:57:59;28.67;;;9.73;;
47219;SDS011;32961;51.936;4.788;2023-04-01T14:00:47;20.17;;;9.68;;
47219;SDS011;32961;51.936;4.788;2023-04-01T14:03:28;26.70;;;10.48;;
47219;SDS011;32961;51.936;4.788;2023-04-01T14:06:05;23.10;;;9.57;;
47219;SDS011;32961;51.936;4.788;2023-04-01T14:08:42;29.05;;;10.20;;
47219;SDS011;32961;51.936;4.788;2023-04-01T14:11:25;22.65;;;8.98;;
47219;SDS011;32961;51.936;4.788;2023-04-01T14:14:02;19.42;;;8.20;;
47219;SDS011;32961;51.936;4.788;2023-04-01T14:22:53;17.90;;;6.95;;
47219;SDS011;32961;51.936;4.788;2023-04-01T14:28:46;22.45;;;7.53;;
47219;SDS011;32961;51.936;4.788;2023-04-01T14:31:23;18.60;;;5.72;;
47219;SDS011;32961;51.936;4.788;2023-04-01T14:34:03;25.20;;;6.47;;
47219;SDS011;32961;51.936;4.788;2023-04-01T14:36:42;22.13;;;5.80;;
47219;SDS011;32961;51.936;4.788;2023-04-01T14:39:22;16.60;;;6.15;;
47219;SDS011;32961;51.936;4.788;2023-04-01T14:42:07;20.33;;;6.10;;
47219;SDS011;32961;51.936;4.788;2023-04-01T14:44:57;20.85;;;6.40;;
47219;SDS011;32961;51.936;4.788;2023-04-01T14:47:39;15.73;;;5.97;;
47219;SDS011;32961;51.936;4.788;2023-04-01T14:50:16;17.63;;;5.55;;
47219;SDS011;32961;51.936;4.788;2023-04-01T14:52:50;12.35;;;5.43;;
47219;SDS011;32961;51.936;4.788;2023-04-01T14:55:28;20.85;;;6.13;;
47219;SDS011;32961;51.936;4.788;2023-04-01T14:58:04;20.38;;;6.07;;
47219;SDS011;32961;51.936;4.788;2023-04-01T15:00:41;19.98;;;6.10;;
47219;SDS011;32961;51.936;4.788;2023-04-01T15:03:18;18.50;;;7.35;;
47219;SDS011;32961;51.936;4.788;2023-04-01T15:05:52;13.27;;;5.38;;
47219;SDS011;32961;51.936;4.788;2023-04-01T15:08:24;14.05;;;5.72;;
47219;SDS011;32961;51.936;4.788;2023-04-01T15:11:07;14.10;;;7.70;;
47219;SDS011;32961;51.936;4.788;2023-04-01T15:14:01;13.40;;;6.40;;
47219;SDS011;32961;51.936;4.788;2023-04-01T15:16:39;22.95;;;11.05;;
47219;SDS011;32961;51.936;4.788;2023-04-01T15:19:15;7.07;;;5.72;;
47219;SDS011;32961;51.936;4.788;2023-04-01T15:21:57;8.55;;;6.45;;
47219;SDS011;32961;51.936;4.788;2023-04-01T15:24:46;7.97;;;6.47;;
47219;SDS011;32961;51.936;4.788;2023-04-01T15:27:18;8.75;;;6.32;;
47219;SDS011;32961;51.936;4.788;2023-04-01T15:35:56;9.30;;;7.50;;
47219;SDS011;32961;51.936;4.788;2023-04-01T15:38:33;8.60;;;7.28;;
47219;SDS011;32961;51.936;4.788;2023-04-01T15:41:13;8.90;;;7.55;;
47219;SDS011;32961;51.936;4.788;2023-04-01T15:43:43;10.75;;;8.20;;
47219;SDS011;32961;51.936;4.788;2023-04-01T15:46:18;9.68;;;7.65;;
47219;SDS011;32961;51.936;4.788;2023-04-01T15:48:57;11.75;;;8.07;;
47219;SDS011;32961;51.936;4.788;2023-04-01T15:51:38;9.68;;;8.13;;
47219;SDS011;32961;51.936;4.788;2023-04-01T15:54:40;9.30;;;6.82;;
47219;SDS011;32961;51.936;4.788;2023-04-01T15:57:24;12.30;;;8.10;;
47219;SDS011;32961;51.936;4.788;2023-04-01T16:00:02;10.52;;;7.63;;
47219;SDS011;32961;51.936;4.788;2023-04-01T16:02:39;8.90;;;7.18;;
47219;SDS011;32961;51.936;4.788;2023-04-01T16:05:22;8.77;;;7.15;;
47219;SDS011;32961;51.936;4.788;2023-04-01T16:07:57;11.73;;;8.00;;
47219;SDS011;32961;51.936;4.788;2023-04-01T16:10:54;9.82;;;7.28;;
47219;SDS011;32961;51.936;4.788;2023-04-01T16:13:37;8.50;;;6.85;;
47219;SDS011;32961;51.936;4.788;2023-04-01T16:16:16;11.13;;;6.65;;
47219;SDS011;32961;51.936;4.788;2023-04-01T16:18:58;12.15;;;7.10;;
47219;SDS011;32961;51.936;4.788;2023-04-01T16:21:43;7.72;;;6.88;;
47219;SDS011;32961;51.936;4.788;2023-04-01T16:24:15;9.07;;;7.65;;
47219;SDS011;32961;51.936;4.788;2023-04-01T16:29:21;7.32;;;5.90;;
47219;SDS011;32961;51.936;4.788;2023-04-01T16:31:59;6.82;;;5.07;;
47219;SDS011;32961;51.936;4.788;2023-04-01T16:34:43;6.82;;;5.00;;
47219;SDS011;32961;51.936;4.788;2023-04-01T16:37:21;6.13;;;5.15;;
47219;SDS011;32961;51.936;4.788;2023-04-01T16:40:02;9.77;;;5.35;;
47219;SDS011;32961;51.936;4.788;2023-04-01T16:42:46;7.93;;;5.07;;
47219;SDS011;32961;51.936;4.788;2023-04-01T16:45:24;6.88;;;5.50;;
47219;SDS011;32961;51.936;4.788;2023-04-01T16:48:01;6.72;;;6.03;;
47219;SDS011;32961;51.936;4.788;2023-04-01T16:50:39;8.68;;;7.13;;
47219;SDS011;32961;51.936;4.788;2023-04-01T16:53:14;8.00;;;6.00;;
47219;SDS011;32961;51.936;4.788;2023-04-01T16:55:48;8.90;;;6.57;;
47219;SDS011;32961;51.936;4.788;2023-04-01T16:58:22;12.52;;;7.25;;
47219;SDS011;32961;51.936;4.788;2023-04-01T17:00:55;128.02;;;64.75;;
47219;SDS011;32961;51.936;4.788;2023-04-01T17:03:28;18.08;;;11.20;;
47219;SDS011;32961;51.936;4.788;2023-04-01T17:06:03;9.05;;;5.93;;